Airfield :







YOU CAN JOIN US ON...

 
LOGIN :

Register | Disclaimer

   EN    FR    IT 

 









Legend :    VFR   Marginal VFR   IFR   Intensive IFR   Very Intensive IFR
Visi :
Ceiling :
>= 8 km
>= 3000ft
5 to 8 km
1000 to 3000 ft
1500m to 5 km
500 to 1000 ft
800 to 1500m
200 to 500 ft
< 800m
< 200 ft
Symbols :   Thunderstorms  Fog  Heavy snow  Heavy precipitations  Wind > 20 kt







- Airport Elevation : 84 ft
- IATA code : YJT


CYJT - Stephenville

CURRENT METAR :
  • 251300Z 07024G30KT 2SM -SN OVC015 M00/M02 A2988 RMK SC8 /S01/ SLP122

EXPIRED METARs :
  • 251200Z 07019G29KT 2SM -SN OVC015 M00/M02 A2990 RMK SC8 SLP129
  • 251135Z 07020G26KT 2 1/2SM -SN OVC015 M00/M03 A2992 RMK SC8 SLP133
  • 251100Z 06020G27KT 4SM -SN OVC016 M00/M03 A2991 RMK SC8 SLP131

TAF TAF CYJT
Valid from the 25 at 12:00 until the 26 at 12:00 UTC


251140Z 2512/2612 09020G30KT 6SM -SN OVC015
TEMPO 2512/2516 2SM -SN OVC015
PROB30 2512/2514 3SM -PL BR
FM251600 09020G35KT 6SM -SNRA BR OVC025
TEMPO 2516/2524 4SM -SNPL OVC020
FM260500 03010G20KT P6SM OVC030
BECMG 2608/2610 36010KT RMK NXT FCST BY 251800Z
CZQX FIR / North America



MET'MAP, your aeronautical weather chart ! - Copyright ORBIFLY December 2007 - Disclaimer

ORBIFLY MET'MAP TEAM :

Programming & Development : Alexandra Zaïnal
Concept & Development : Baudouin d'Aumeries
Co-Development & Prog : Marc-Olivier Méhu
Technical & hardware support : Manuel Goepfert

Contact : metmap@orbifly.com




SOURCES & CREDITS :

   NOAA